sensor_id;sensor_type;location;lat;lon;timestamp;P1;durP1;ratioP1;P2;durP2;ratioP2
29546;SDS011;40782;47.264;11.330;2022-11-09T00:01:14;12.15;;;8.75;;
29546;SDS011;40782;47.264;11.330;2022-11-09T00:03:43;13.15;;;8.88;;
29546;SDS011;40782;47.264;11.330;2022-11-09T00:06:10;12.80;;;8.43;;
29546;SDS011;40782;47.264;11.330;2022-11-09T00:08:39;13.45;;;8.60;;
29546;SDS011;40782;47.264;11.330;2022-11-09T00:11:08;13.43;;;8.32;;
29546;SDS011;40782;47.264;11.330;2022-11-09T00:13:36;11.07;;;8.07;;
29546;SDS011;40782;47.264;11.330;2022-11-09T00:16:05;14.40;;;7.85;;
29546;SDS011;40782;47.264;11.330;2022-11-09T00:18:34;13.25;;;9.05;;
29546;SDS011;40782;47.264;11.330;2022-11-09T00:21:05;13.65;;;8.75;;
29546;SDS011;40782;47.264;11.330;2022-11-09T00:23:33;11.45;;;8.20;;
29546;SDS011;40782;47.264;11.330;2022-11-09T00:26:00;12.73;;;8.13;;
29546;SDS011;40782;47.264;11.330;2022-11-09T00:28:28;11.18;;;8.32;;
29546;SDS011;40782;47.264;11.330;2022-11-09T00:30:57;12.20;;;8.50;;
29546;SDS011;40782;47.264;11.330;2022-11-09T00:33:25;14.45;;;8.75;;
29546;SDS011;40782;47.264;11.330;2022-11-09T00:35:52;11.77;;;9.05;;
29546;SDS011;40782;47.264;11.330;2022-11-09T00:38:20;12.15;;;8.52;;
29546;SDS011;40782;47.264;11.330;2022-11-09T00:40:48;11.10;;;8.32;;
29546;SDS011;40782;47.264;11.330;2022-11-09T00:43:15;13.82;;;8.82;;
29546;SDS011;40782;47.264;11.330;2022-11-09T00:45:42;11.05;;;8.20;;
29546;SDS011;40782;47.264;11.330;2022-11-09T00:48:12;12.13;;;8.02;;
29546;SDS011;40782;47.264;11.330;2022-11-09T00:50:39;14.02;;;8.48;;
29546;SDS011;40782;47.264;11.330;2022-11-09T00:53:06;14.32;;;8.95;;
29546;SDS011;40782;47.264;11.330;2022-11-09T00:55:35;11.18;;;8.50;;
29546;SDS011;40782;47.264;11.330;2022-11-09T00:58:02;13.30;;;9.00;;
29546;SDS011;40782;47.264;11.330;2022-11-09T01:00:29;14.60;;;9.50;;
29546;SDS011;40782;47.264;11.330;2022-11-09T01:02:57;12.50;;;8.95;;
29546;SDS011;40782;47.264;11.330;2022-11-09T01:05:24;11.80;;;8.40;;
29546;SDS011;40782;47.264;11.330;2022-11-09T01:07:51;12.90;;;8.80;;
29546;SDS011;40782;47.264;11.330;2022-11-09T01:10:18;11.25;;;8.40;;
29546;SDS011;40782;47.264;11.330;2022-11-09T01:12:47;20.17;;;9.70;;
29546;SDS011;40782;47.264;11.330;2022-11-09T01:15:14;14.13;;;9.13;;
29546;SDS011;40782;47.264;11.330;2022-11-09T01:17:41;12.95;;;8.32;;
29546;SDS011;40782;47.264;11.330;2022-11-09T01:20:09;12.30;;;8.80;;
29546;SDS011;40782;47.264;11.330;2022-11-09T01:22:36;10.52;;;7.70;;
29546;SDS011;40782;47.264;11.330;2022-11-09T01:25:04;10.38;;;7.68;;
29546;SDS011;40782;47.264;11.330;2022-11-09T01:27:32;9.85;;;7.90;;
29546;SDS011;40782;47.264;11.330;2022-11-09T01:30:00;13.30;;;7.95;;
29546;SDS011;40782;47.264;11.330;2022-11-09T01:32:30;9.68;;;7.28;;
29546;SDS011;40782;47.264;11.330;2022-11-09T01:34:57;7.10;;;6.32;;
29546;SDS011;40782;47.264;11.330;2022-11-09T01:37:24;7.75;;;5.80;;
29546;SDS011;40782;47.264;11.330;2022-11-09T01:39:52;9.40;;;6.75;;
29546;SDS011;40782;47.264;11.330;2022-11-09T01:42:21;11.02;;;7.45;;
29546;SDS011;40782;47.264;11.330;2022-11-09T01:47:50;14.77;;;8.45;;
29546;SDS011;40782;47.264;11.330;2022-11-09T01:50:25;10.70;;;7.82;;
29546;SDS011;40782;47.264;11.330;2022-11-09T01:52:57;11.98;;;7.53;;
29546;SDS011;40782;47.264;11.330;2022-11-09T01:55:26;9.15;;;7.03;;
29546;SDS011;40782;47.264;11.330;2022-11-09T01:57:54;10.15;;;7.00;;
29546;SDS011;40782;47.264;11.330;2022-11-09T02:00:25;12.90;;;7.63;;
29546;SDS011;40782;47.264;11.330;2022-11-09T02:02:54;11.40;;;7.25;;
29546;SDS011;40782;47.264;11.330;2022-11-09T02:05:23;9.40;;;6.85;;
29546;SDS011;40782;47.264;11.330;2022-11-09T02:07:53;9.02;;;7.07;;
29546;SDS011;40782;47.264;11.330;2022-11-09T02:10:23;9.77;;;6.97;;
29546;SDS011;40782;47.264;11.330;2022-11-09T02:12:53;8.88;;;6.97;;
29546;SDS011;40782;47.264;11.330;2022-11-09T02:15:21;8.57;;;6.22;;
29546;SDS011;40782;47.264;11.330;2022-11-09T02:17:51;8.77;;;5.85;;
29546;SDS011;40782;47.264;11.330;2022-11-09T02:20:22;10.18;;;6.65;;
29546;SDS011;40782;47.264;11.330;2022-11-09T02:22:49;9.30;;;6.70;;
29546;SDS011;40782;47.264;11.330;2022-11-09T02:25:16;10.93;;;8.20;;
29546;SDS011;40782;47.264;11.330;2022-11-09T02:27:44;10.65;;;6.63;;
29546;SDS011;40782;47.264;11.330;2022-11-09T02:30:11;10.55;;;7.15;;
29546;SDS011;40782;47.264;11.330;2022-11-09T02:32:40;12.80;;;6.55;;
29546;SDS011;40782;47.264;11.330;2022-11-09T02:35:08;10.80;;;7.13;;
29546;SDS011;40782;47.264;11.330;2022-11-09T02:37:38;9.82;;;7.05;;
29546;SDS011;40782;47.264;11.330;2022-11-09T02:42:39;9.43;;;6.97;;
29546;SDS011;40782;47.264;11.330;2022-11-09T02:45:06;9.93;;;6.72;;
29546;SDS011;40782;47.264;11.330;2022-11-09T02:47:34;9.80;;;6.90;;
29546;SDS011;40782;47.264;11.330;2022-11-09T02:50:02;7.57;;;6.10;;
29546;SDS011;40782;47.264;11.330;2022-11-09T02:52:29;9.05;;;6.45;;
29546;SDS011;40782;47.264;11.330;2022-11-09T02:54:58;8.25;;;6.72;;
29546;SDS011;40782;47.264;11.330;2022-11-09T02:57:25;7.80;;;6.80;;
29546;SDS011;40782;47.264;11.330;2022-11-09T02:59:52;8.82;;;6.70;;
29546;SDS011;40782;47.264;11.330;2022-11-09T03:02:19;7.07;;;5.82;;
29546;SDS011;40782;47.264;11.330;2022-11-09T03:04:46;11.48;;;6.85;;
29546;SDS011;40782;47.264;11.330;2022-11-09T03:07:13;8.77;;;6.78;;
29546;SDS011;40782;47.264;11.330;2022-11-09T03:09:40;7.75;;;5.90;;
29546;SDS011;40782;47.264;11.330;2022-11-09T03:12:09;6.13;;;5.53;;
29546;SDS011;40782;47.264;11.330;2022-11-09T03:14:55;8.13;;;5.57;;
29546;SDS011;40782;47.264;11.330;2022-11-09T03:17:22;8.65;;;5.75;;
29546;SDS011;40782;47.264;11.330;2022-11-09T03:19:49;6.90;;;5.80;;
29546;SDS011;40782;47.264;11.330;2022-11-09T03:22:17;8.63;;;5.43;;
29546;SDS011;40782;47.264;11.330;2022-11-09T03:24:44;8.82;;;5.72;;
29546;SDS011;40782;47.264;11.330;2022-11-09T03:27:13;8.27;;;6.18;;
29546;SDS011;40782;47.264;11.330;2022-11-09T03:29:40;9.38;;;6.43;;
29546;SDS011;40782;47.264;11.330;2022-11-09T03:32:07;6.53;;;5.53;;
29546;SDS011;40782;47.264;11.330;2022-11-09T03:34:35;6.47;;;4.90;;
29546;SDS011;40782;47.264;11.330;2022-11-09T03:37:02;6.47;;;5.10;;
29546;SDS011;40782;47.264;11.330;2022-11-09T03:39:29;8.38;;;5.60;;
29546;SDS011;40782;47.264;11.330;2022-11-09T03:41:57;5.18;;;4.55;;
29546;SDS011;40782;47.264;11.330;2022-11-09T03:44:25;10.10;;;5.22;;
29546;SDS011;40782;47.264;11.330;2022-11-09T03:46:52;8.45;;;4.70;;
29546;SDS011;40782;47.264;11.330;2022-11-09T03:49:19;8.82;;;4.97;;
29546;SDS011;40782;47.264;11.330;2022-11-09T03:51:49;4.82;;;4.25;;
29546;SDS011;40782;47.264;11.330;2022-11-09T03:54:16;6.05;;;4.70;;
29546;SDS011;40782;47.264;11.330;2022-11-09T03:56:43;7.63;;;4.90;;
29546;SDS011;40782;47.264;11.330;2022-11-09T03:59:11;5.78;;;5.18;;
29546;SDS011;40782;47.264;11.330;2022-11-09T04:01:39;6.50;;;5.03;;
29546;SDS011;40782;47.264;11.330;2022-11-09T04:04:07;5.53;;;4.50;;
29546;SDS011;40782;47.264;11.330;2022-11-09T04:06:34;8.57;;;5.32;;
29546;SDS011;40782;47.264;11.330;2022-11-09T04:09:01;5.75;;;5.10;;
29546;SDS011;40782;47.264;11.330;2022-11-09T04:11:28;6.82;;;5.05;;
29546;SDS011;40782;47.264;11.330;2022-11-09T04:13:55;6.25;;;5.18;;
29546;SDS011;40782;47.264;11.330;2022-11-09T04:16:22;7.13;;;5.35;;
29546;SDS011;40782;47.264;11.330;2022-11-09T04:18:51;8.95;;;5.90;;
29546;SDS011;40782;47.264;11.330;2022-11-09T04:21:18;13.38;;;5.80;;
29546;SDS011;40782;47.264;11.330;2022-11-09T04:23:46;8.65;;;5.40;;
29546;SDS011;40782;47.264;11.330;2022-11-09T04:26:14;6.15;;;5.35;;
29546;SDS011;40782;47.264;11.330;2022-11-09T04:28:42;11.95;;;6.45;;
29546;SDS011;40782;47.264;11.330;2022-11-09T04:31:09;9.18;;;6.15;;
29546;SDS011;40782;47.264;11.330;2022-11-09T04:33:36;9.18;;;6.03;;
29546;SDS011;40782;47.264;11.330;2022-11-09T04:36:05;10.20;;;6.35;;
29546;SDS011;40782;47.264;11.330;2022-11-09T04:38:33;7.75;;;5.95;;
29546;SDS011;40782;47.264;11.330;2022-11-09T04:41:01;10.93;;;5.93;;
29546;SDS011;40782;47.264;11.330;2022-11-09T04:43:28;7.30;;;5.80;;
29546;SDS011;40782;47.264;11.330;2022-11-09T04:45:57;7.70;;;5.32;;
29546;SDS011;40782;47.264;11.330;2022-11-09T04:48:25;7.50;;;5.22;;
29546;SDS011;40782;47.264;11.330;2022-11-09T04:50:57;7.70;;;5.88;;
29546;SDS011;40782;47.264;11.330;2022-11-09T04:53:27;8.63;;;5.13;;
29546;SDS011;40782;47.264;11.330;2022-11-09T04:55:54;5.63;;;4.65;;
29546;SDS011;40782;47.264;11.330;2022-11-09T04:58:21;7.22;;;5.00;;
29546;SDS011;40782;47.264;11.330;2022-11-09T05:00:49;10.27;;;6.45;;
29546;SDS011;40782;47.264;11.330;2022-11-09T05:03:17;6.38;;;5.05;;
29546;SDS011;40782;47.264;11.330;2022-11-09T05:05:44;8.15;;;5.35;;
29546;SDS011;40782;47.264;11.330;2022-11-09T05:08:11;7.20;;;5.78;;
29546;SDS011;40782;47.264;11.330;2022-11-09T05:10:40;8.38;;;5.50;;
29546;SDS011;40782;47.264;11.330;2022-11-09T05:13:09;7.85;;;5.13;;
29546;SDS011;40782;47.264;11.330;2022-11-09T05:15:37;7.82;;;5.40;;
29546;SDS011;40782;47.264;11.330;2022-11-09T05:18:05;6.75;;;5.05;;
29546;SDS011;40782;47.264;11.330;2022-11-09T05:20:33;9.15;;;5.68;;
29546;SDS011;40782;47.264;11.330;2022-11-09T05:23:01;7.07;;;5.47;;
29546;SDS011;40782;47.264;11.330;2022-11-09T05:25:47;7.68;;;5.30;;
29546;SDS011;40782;47.264;11.330;2022-11-09T05:28:14;7.35;;;4.90;;
29546;SDS011;40782;47.264;11.330;2022-11-09T05:30:41;9.43;;;5.53;;
29546;SDS011;40782;47.264;11.330;2022-11-09T05:33:09;7.95;;;5.18;;
29546;SDS011;40782;47.264;11.330;2022-11-09T05:35:36;8.93;;;5.53;;
29546;SDS011;40782;47.264;11.330;2022-11-09T05:38:03;7.45;;;5.50;;
29546;SDS011;40782;47.264;11.330;2022-11-09T05:40:30;24.92;;;15.35;;
29546;SDS011;40782;47.264;11.330;2022-11-09T05:42:59;17.52;;;9.55;;
29546;SDS011;40782;47.264;11.330;2022-11-09T05:45:26;60.22;;;32.83;;
29546;SDS011;40782;47.264;11.330;2022-11-09T05:47:54;78.47;;;41.72;;
29546;SDS011;40782;47.264;11.330;2022-11-09T05:50:21;49.13;;;28.55;;
29546;SDS011;40782;47.264;11.330;2022-11-09T05:52:48;21.25;;;13.82;;
29546;SDS011;40782;47.264;11.330;2022-11-09T05:55:17;24.60;;;12.43;;
29546;SDS011;40782;47.264;11.330;2022-11-09T05:57:44;14.82;;;10.77;;
29546;SDS011;40782;47.264;11.330;2022-11-09T06:00:14;15.50;;;10.55;;
29546;SDS011;40782;47.264;11.330;2022-11-09T06:02:41;15.00;;;9.10;;
29546;SDS011;40782;47.264;11.330;2022-11-09T06:05:08;14.93;;;8.90;;
29546;SDS011;40782;47.264;11.330;2022-11-09T06:07:35;12.82;;;8.18;;
29546;SDS011;40782;47.264;11.330;2022-11-09T06:10:03;10.93;;;7.07;;
29546;SDS011;40782;47.264;11.330;2022-11-09T06:12:31;9.90;;;5.80;;
29546;SDS011;40782;47.264;11.330;2022-11-09T06:14:58;9.23;;;6.13;;
29546;SDS011;40782;47.264;11.330;2022-11-09T06:17:27;7.90;;;5.72;;
29546;SDS011;40782;47.264;11.330;2022-11-09T06:19:54;7.25;;;4.75;;
29546;SDS011;40782;47.264;11.330;2022-11-09T06:22:21;10.15;;;5.95;;
29546;SDS011;40782;47.264;11.330;2022-11-09T06:24:49;6.68;;;5.88;;
29546;SDS011;40782;47.264;11.330;2022-11-09T06:27:16;8.27;;;6.55;;
29546;SDS011;40782;47.264;11.330;2022-11-09T06:29:43;9.15;;;6.10;;
29546;SDS011;40782;47.264;11.330;2022-11-09T06:32:10;7.32;;;5.35;;
29546;SDS011;40782;47.264;11.330;2022-11-09T06:34:39;9.25;;;6.07;;
29546;SDS011;40782;47.264;11.330;2022-11-09T06:37:07;8.02;;;6.28;;
29546;SDS011;40782;47.264;11.330;2022-11-09T06:39:34;6.70;;;4.82;;
29546;SDS011;40782;47.264;11.330;2022-11-09T06:42:01;8.05;;;5.15;;
29546;SDS011;40782;47.264;11.330;2022-11-09T06:44:28;7.05;;;5.18;;
29546;SDS011;40782;47.264;11.330;2022-11-09T06:46:55;9.43;;;5.30;;
29546;SDS011;40782;47.264;11.330;2022-11-09T06:49:23;8.38;;;6.07;;
29546;SDS011;40782;47.264;11.330;2022-11-09T06:51:51;10.95;;;5.55;;
29546;SDS011;40782;47.264;11.330;2022-11-09T06:54:18;7.22;;;5.65;;
29546;SDS011;40782;47.264;11.330;2022-11-09T06:56:45;9.90;;;5.95;;
29546;SDS011;40782;47.264;11.330;2022-11-09T06:59:12;7.93;;;6.18;;
29546;SDS011;40782;47.264;11.330;2022-11-09T07:01:40;8.27;;;5.97;;
29546;SDS011;40782;47.264;11.330;2022-11-09T07:04:07;9.90;;;5.80;;
29546;SDS011;40782;47.264;11.330;2022-11-09T07:06:38;10.95;;;5.93;;
29546;SDS011;40782;47.264;11.330;2022-11-09T07:09:07;8.77;;;5.70;;
29546;SDS011;40782;47.264;11.330;2022-11-09T07:11:35;10.68;;;5.63;;
29546;SDS011;40782;47.264;11.330;2022-11-09T07:14:02;6.85;;;5.28;;
29546;SDS011;40782;47.264;11.330;2022-11-09T07:16:29;11.98;;;5.05;;
29546;SDS011;40782;47.264;11.330;2022-11-09T07:18:57;11.50;;;5.90;;
29546;SDS011;40782;47.264;11.330;2022-11-09T07:21:24;7.38;;;4.93;;
29546;SDS011;40782;47.264;11.330;2022-11-09T07:23:51;8.50;;;5.13;;
29546;SDS011;40782;47.264;11.330;2022-11-09T07:26:20;6.90;;;4.70;;
29546;SDS011;40782;47.264;11.330;2022-11-09T07:28:47;6.78;;;4.88;;
29546;SDS011;40782;47.264;11.330;2022-11-09T07:31:15;9.32;;;5.03;;
29546;SDS011;40782;47.264;11.330;2022-11-09T07:33:42;9.25;;;5.07;;
29546;SDS011;40782;47.264;11.330;2022-11-09T07:36:09;11.20;;;4.20;;
29546;SDS011;40782;47.264;11.330;2022-11-09T07:38:36;6.22;;;4.07;;
29546;SDS011;40782;47.264;11.330;2022-11-09T07:41:04;8.43;;;4.40;;
29546;SDS011;40782;47.264;11.330;2022-11-09T07:43:32;7.75;;;4.80;;
29546;SDS011;40782;47.264;11.330;2022-11-09T07:46:02;4.85;;;4.20;;
29546;SDS011;40782;47.264;11.330;2022-11-09T07:48:29;6.75;;;4.38;;
29546;SDS011;40782;47.264;11.330;2022-11-09T07:50:59;7.82;;;4.43;;
29546;SDS011;40782;47.264;11.330;2022-11-09T07:53:26;8.90;;;4.47;;
29546;SDS011;40782;47.264;11.330;2022-11-09T07:55:56;4.68;;;3.50;;
29546;SDS011;40782;47.264;11.330;2022-11-09T07:58:24;11.35;;;3.95;;
29546;SDS011;40782;47.264;11.330;2022-11-09T08:00:53;4.25;;;3.78;;
29546;SDS011;40782;47.264;11.330;2022-11-09T08:03:21;8.85;;;4.80;;
29546;SDS011;40782;47.264;11.330;2022-11-09T08:05:49;6.82;;;4.25;;
29546;SDS011;40782;47.264;11.330;2022-11-09T08:08:16;8.00;;;4.20;;
29546;SDS011;40782;47.264;11.330;2022-11-09T08:10:44;6.05;;;4.13;;
29546;SDS011;40782;47.264;11.330;2022-11-09T08:13:15;5.57;;;4.38;;
29546;SDS011;40782;47.264;11.330;2022-11-09T08:15:43;5.25;;;4.32;;
29546;SDS011;40782;47.264;11.330;2022-11-09T08:18:13;6.53;;;3.97;;
29546;SDS011;40782;47.264;11.330;2022-11-09T08:20:42;7.97;;;4.35;;
29546;SDS011;40782;47.264;11.330;2022-11-09T08:23:10;7.30;;;4.38;;
29546;SDS011;40782;47.264;11.330;2022-11-09T08:25:38;4.88;;;3.75;;
29546;SDS011;40782;47.264;11.330;2022-11-09T08:28:05;5.50;;;3.92;;
29546;SDS011;40782;47.264;11.330;2022-11-09T08:30:33;5.60;;;3.90;;
29546;SDS011;40782;47.264;11.330;2022-11-09T08:33:00;5.68;;;3.85;;
29546;SDS011;40782;47.264;11.330;2022-11-09T08:35:30;5.35;;;3.83;;
29546;SDS011;40782;47.264;11.330;2022-11-09T08:37:59;5.05;;;3.88;;
29546;SDS011;40782;47.264;11.330;2022-11-09T08:40:28;8.15;;;3.65;;
29546;SDS011;40782;47.264;11.330;2022-11-09T08:42:59;7.75;;;3.53;;
29546;SDS011;40782;47.264;11.330;2022-11-09T08:45:28;3.45;;;3.15;;
29546;SDS011;40782;47.264;11.330;2022-11-09T08:47:58;5.22;;;3.60;;
29546;SDS011;40782;47.264;11.330;2022-11-09T08:50:25;7.97;;;3.72;;
29546;SDS011;40782;47.264;11.330;2022-11-09T08:52:55;4.70;;;3.28;;
29546;SDS011;40782;47.264;11.330;2022-11-09T08:55:22;4.53;;;3.40;;
29546;SDS011;40782;47.264;11.330;2022-11-09T08:57:52;7.43;;;3.83;;
29546;SDS011;40782;47.264;11.330;2022-11-09T09:00:20;13.23;;;4.32;;
29546;SDS011;40782;47.264;11.330;2022-11-09T09:02:47;5.47;;;3.78;;
29546;SDS011;40782;47.264;11.330;2022-11-09T09:05:14;7.97;;;4.00;;
29546;SDS011;40782;47.264;11.330;2022-11-09T09:07:42;6.38;;;3.92;;
29546;SDS011;40782;47.264;11.330;2022-11-09T09:10:11;6.75;;;3.70;;
29546;SDS011;40782;47.264;11.330;2022-11-09T09:12:38;3.65;;;3.22;;
29546;SDS011;40782;47.264;11.330;2022-11-09T09:15:07;4.28;;;3.58;;
29546;SDS011;40782;47.264;11.330;2022-11-09T09:17:34;11.68;;;3.30;;
29546;SDS011;40782;47.264;11.330;2022-11-09T09:20:01;6.72;;;3.60;;
29546;SDS011;40782;47.264;11.330;2022-11-09T09:22:29;5.93;;;3.38;;
29546;SDS011;40782;47.264;11.330;2022-11-09T09:24:57;3.03;;;2.70;;
29546;SDS011;40782;47.264;11.330;2022-11-09T09:27:26;4.32;;;3.20;;
29546;SDS011;40782;47.264;11.330;2022-11-09T09:29:55;6.88;;;3.75;;
29546;SDS011;40782;47.264;11.330;2022-11-09T09:32:22;4.25;;;3.08;;
29546;SDS011;40782;47.264;11.330;2022-11-09T09:34:50;5.75;;;2.60;;
29546;SDS011;40782;47.264;11.330;2022-11-09T09:37:17;3.83;;;2.78;;
29546;SDS011;40782;47.264;11.330;2022-11-09T09:39:44;3.83;;;2.60;;
29546;SDS011;40782;47.264;11.330;2022-11-09T09:42:13;4.07;;;2.80;;
29546;SDS011;40782;47.264;11.330;2022-11-09T09:44:46;5.97;;;3.13;;
29546;SDS011;40782;47.264;11.330;2022-11-09T09:47:19;4.07;;;3.50;;
29546;SDS011;40782;47.264;11.330;2022-11-09T09:52:20;6.78;;;3.30;;
29546;SDS011;40782;47.264;11.330;2022-11-09T09:54:57;5.90;;;2.83;;
29546;SDS011;40782;47.264;11.330;2022-11-09T09:57:30;6.72;;;2.55;;
29546;SDS011;40782;47.264;11.330;2022-11-09T10:00:01;5.15;;;2.92;;
29546;SDS011;40782;47.264;11.330;2022-11-09T10:02:33;4.22;;;2.53;;
29546;SDS011;40782;47.264;11.330;2022-11-09T10:05:02;6.03;;;2.78;;
29546;SDS011;40782;47.264;11.330;2022-11-09T10:07:35;6.22;;;2.80;;
29546;SDS011;40782;47.264;11.330;2022-11-09T10:10:14;3.08;;;2.63;;
29546;SDS011;40782;47.264;11.330;2022-11-09T10:12:55;3.03;;;2.38;;
29546;SDS011;40782;47.264;11.330;2022-11-09T10:15:41;3.53;;;2.60;;
29546;SDS011;40782;47.264;11.330;2022-11-09T10:18:18;2.80;;;2.30;;
29546;SDS011;40782;47.264;11.330;2022-11-09T10:20:58;3.47;;;2.92;;
29546;SDS011;40782;47.264;11.330;2022-11-09T10:23:42;4.85;;;2.72;;
29546;SDS011;40782;47.264;11.330;2022-11-09T10:26:22;3.97;;;2.92;;
29546;SDS011;40782;47.264;11.330;2022-11-09T10:28:56;2.53;;;2.03;;
29546;SDS011;40782;47.264;11.330;2022-11-09T10:31:29;2.22;;;2.03;;
29546;SDS011;40782;47.264;11.330;2022-11-09T10:36:32;6.13;;;2.17;;
29546;SDS011;40782;47.264;11.330;2022-11-09T10:39:06;2.50;;;1.77;;
29546;SDS011;40782;47.264;11.330;2022-11-09T10:41:38;2.92;;;2.05;;
29546;SDS011;40782;47.264;11.330;2022-11-09T10:44:07;2.75;;;1.90;;
29546;SDS011;40782;47.264;11.330;2022-11-09T10:49:30;2.60;;;2.25;;
29546;SDS011;40782;47.264;11.330;2022-11-09T10:51:58;6.28;;;2.78;;
29546;SDS011;40782;47.264;11.330;2022-11-09T10:54:27;7.38;;;3.17;;
29546;SDS011;40782;47.264;11.330;2022-11-09T10:57:13;7.30;;;3.00;;
29546;SDS011;40782;47.264;11.330;2022-11-09T10:59:44;5.05;;;2.25;;
29546;SDS011;40782;47.264;11.330;2022-11-09T11:07:56;3.40;;;2.17;;
29546;SDS011;40782;47.264;11.330;2022-11-09T11:10:24;3.17;;;2.08;;
29546;SDS011;40782;47.264;11.330;2022-11-09T11:12:56;4.20;;;2.25;;
29546;SDS011;40782;47.264;11.330;2022-11-09T11:15:38;1.98;;;1.88;;
29546;SDS011;40782;47.264;11.330;2022-11-09T11:18:12;3.15;;;1.83;;
29546;SDS011;40782;47.264;11.330;2022-11-09T11:20:43;3.47;;;2.17;;
29546;SDS011;40782;47.264;11.330;2022-11-09T11:23:12;5.68;;;1.88;;
29546;SDS011;40782;47.264;11.330;2022-11-09T11:25:55;3.03;;;2.30;;
29546;SDS011;40782;47.264;11.330;2022-11-09T11:28:33;2.20;;;1.98;;
29546;SDS011;40782;47.264;11.330;2022-11-09T11:31:05;2.00;;;1.90;;
29546;SDS011;40782;47.264;11.330;2022-11-09T11:33:37;2.75;;;2.00;;
29546;SDS011;40782;47.264;11.330;2022-11-09T11:36:07;1.88;;;1.77;;
29546;SDS011;40782;47.264;11.330;2022-11-09T11:38:42;1.90;;;1.80;;
29546;SDS011;40782;47.264;11.330;2022-11-09T11:41:26;3.17;;;1.70;;
29546;SDS011;40782;47.264;11.330;2022-11-09T11:44:11;2.90;;;1.73;;
29546;SDS011;40782;47.264;11.330;2022-11-09T11:46:51;4.57;;;1.85;;
29546;SDS011;40782;47.264;11.330;2022-11-09T11:49:30;2.60;;;1.80;;
29546;SDS011;40782;47.264;11.330;2022-11-09T11:52:11;1.73;;;1.55;;
29546;SDS011;40782;47.264;11.330;2022-11-09T11:54:46;4.13;;;1.90;;
29546;SDS011;40782;47.264;11.330;2022-11-09T11:57:32;2.63;;;2.30;;
29546;SDS011;40782;47.264;11.330;2022-11-09T12:00:08;2.80;;;2.03;;
29546;SDS011;40782;47.264;11.330;2022-11-09T12:02:56;2.28;;;1.98;;
29546;SDS011;40782;47.264;11.330;2022-11-09T12:06:05;3.55;;;2.10;;
29546;SDS011;40782;47.264;11.330;2022-11-09T12:08:50;2.42;;;1.98;;
29546;SDS011;40782;47.264;11.330;2022-11-09T12:11:35;3.17;;;2.58;;
29546;SDS011;40782;47.264;11.330;2022-11-09T12:14:14;2.85;;;2.05;;
29546;SDS011;40782;47.264;11.330;2022-11-09T12:16:52;3.33;;;2.00;;
29546;SDS011;40782;47.264;11.330;2022-11-09T12:19:39;2.92;;;2.40;;
29546;SDS011;40782;47.264;11.330;2022-11-09T12:22:19;7.18;;;4.03;;
29546;SDS011;40782;47.264;11.330;2022-11-09T12:24:58;4.45;;;3.03;;
29546;SDS011;40782;47.264;11.330;2022-11-09T12:27:37;3.53;;;2.90;;
29546;SDS011;40782;47.264;11.330;2022-11-09T12:30:21;3.63;;;2.65;;
29546;SDS011;40782;47.264;11.330;2022-11-09T12:32:50;3.65;;;2.72;;
29546;SDS011;40782;47.264;11.330;2022-11-09T12:35:22;3.95;;;3.05;;
29546;SDS011;40782;47.264;11.330;2022-11-09T12:37:55;3.13;;;2.85;;
29546;SDS011;40782;47.264;11.330;2022-11-09T12:40:32;3.88;;;2.63;;
29546;SDS011;40782;47.264;11.330;2022-11-09T12:43:04;5.82;;;2.92;;
29546;SDS011;40782;47.264;11.330;2022-11-09T12:45:40;4.93;;;3.00;;
29546;SDS011;40782;47.264;11.330;2022-11-09T12:48:12;2.78;;;2.50;;
29546;SDS011;40782;47.264;11.330;2022-11-09T12:50:50;4.47;;;2.53;;
29546;SDS011;40782;47.264;11.330;2022-11-09T12:53:20;4.60;;;2.65;;
29546;SDS011;40782;47.264;11.330;2022-11-09T12:55:52;3.45;;;2.80;;
29546;SDS011;40782;47.264;11.330;2022-11-09T12:58:24;4.45;;;2.65;;
29546;SDS011;40782;47.264;11.330;2022-11-09T13:00:54;3.25;;;2.33;;
29546;SDS011;40782;47.264;11.330;2022-11-09T13:03:23;4.45;;;2.22;;
29546;SDS011;40782;47.264;11.330;2022-11-09T13:06:09;4.90;;;2.80;;
29546;SDS011;40782;47.264;11.330;2022-11-09T13:08:38;4.13;;;2.88;;
29546;SDS011;40782;47.264;11.330;2022-11-09T13:11:24;5.30;;;2.67;;
29546;SDS011;40782;47.264;11.330;2022-11-09T13:20:09;5.47;;;3.30;;
29546;SDS011;40782;47.264;11.330;2022-11-09T13:23:24;4.28;;;2.90;;
29546;SDS011;40782;47.264;11.330;2022-11-09T13:25:57;2.88;;;2.50;;
29546;SDS011;40782;47.264;11.330;2022-11-09T13:28:43;2.50;;;2.30;;
29546;SDS011;40782;47.264;11.330;2022-11-09T13:34:48;3.00;;;1.92;;
29546;SDS011;40782;47.264;11.330;2022-11-09T13:43:13;2.47;;;2.20;;
29546;SDS011;40782;47.264;11.330;2022-11-09T13:45:43;1.92;;;1.83;;
29546;SDS011;40782;47.264;11.330;2022-11-09T13:48:29;2.08;;;1.83;;
29546;SDS011;40782;47.264;11.330;2022-11-09T13:51:00;2.10;;;1.92;;
29546;SDS011;40782;47.264;11.330;2022-11-09T13:53:46;2.30;;;2.10;;
29546;SDS011;40782;47.264;11.330;2022-11-09T13:56:18;5.15;;;2.38;;
29546;SDS011;40782;47.264;11.330;2022-11-09T13:58:50;2.38;;;2.20;;
29546;SDS011;40782;47.264;11.330;2022-11-09T14:01:29;2.80;;;2.15;;
29546;SDS011;40782;47.264;11.330;2022-11-09T14:06:28;2.33;;;1.80;;
29546;SDS011;40782;47.264;11.330;2022-11-09T14:08:57;1.73;;;1.30;;
29546;SDS011;40782;47.264;11.330;2022-11-09T14:17:41;1.98;;;1.88;;
29546;SDS011;40782;47.264;11.330;2022-11-09T14:20:18;3.08;;;1.92;;
29546;SDS011;40782;47.264;11.330;2022-11-09T14:22:53;2.67;;;2.30;;
29546;SDS011;40782;47.264;11.330;2022-11-09T14:25:22;2.60;;;2.08;;
29546;SDS011;40782;47.264;11.330;2022-11-09T14:27:51;2.50;;;1.67;;
29546;SDS011;40782;47.264;11.330;2022-11-09T14:30:23;1.77;;;1.67;;
29546;SDS011;40782;47.264;11.330;2022-11-09T14:32:53;2.17;;;1.90;;
29546;SDS011;40782;47.264;11.330;2022-11-09T14:35:22;1.73;;;1.63;;
29546;SDS011;40782;47.264;11.330;2022-11-09T14:37:52;1.95;;;1.73;;
29546;SDS011;40782;47.264;11.330;2022-11-09T14:40:23;4.65;;;2.17;;
29546;SDS011;40782;47.264;11.330;2022-11-09T14:42:53;5.00;;;2.30;;
29546;SDS011;40782;47.264;11.330;2022-11-09T14:45:24;2.88;;;1.95;;
29546;SDS011;40782;47.264;11.330;2022-11-09T14:47:54;2.25;;;1.83;;
29546;SDS011;40782;47.264;11.330;2022-11-09T14:50:25;2.45;;;1.70;;
29546;SDS011;40782;47.264;11.330;2022-11-09T14:52:54;3.28;;;1.80;;
29546;SDS011;40782;47.264;11.330;2022-11-09T14:55:24;2.78;;;1.90;;
29546;SDS011;40782;47.264;11.330;2022-11-09T14:57:53;4.35;;;2.42;;
29546;SDS011;40782;47.264;11.330;2022-11-09T15:00:22;3.60;;;1.92;;
29546;SDS011;40782;47.264;11.330;2022-11-09T15:02:52;4.00;;;1.75;;
29546;SDS011;40782;47.264;11.330;2022-11-09T15:05:28;2.38;;;2.00;;
29546;SDS011;40782;47.264;11.330;2022-11-09T15:08:00;2.80;;;1.92;;
29546;SDS011;40782;47.264;11.330;2022-11-09T15:10:29;2.20;;;2.00;;
29546;SDS011;40782;47.264;11.330;2022-11-09T15:12:58;4.38;;;2.03;;
29546;SDS011;40782;47.264;11.330;2022-11-09T15:15:28;3.60;;;2.63;;
29546;SDS011;40782;47.264;11.330;2022-11-09T15:17:56;4.13;;;2.38;;
29546;SDS011;40782;47.264;11.330;2022-11-09T15:20:26;4.65;;;2.30;;
29546;SDS011;40782;47.264;11.330;2022-11-09T15:22:56;3.78;;;2.90;;
29546;SDS011;40782;47.264;11.330;2022-11-09T15:25:26;4.53;;;2.50;;
29546;SDS011;40782;47.264;11.330;2022-11-09T15:27:59;2.40;;;2.20;;
29546;SDS011;40782;47.264;11.330;2022-11-09T15:30:43;4.45;;;2.60;;
29546;SDS011;40782;47.264;11.330;2022-11-09T15:33:21;10.07;;;4.20;;